sensor_id;sensor_type;location;lat;lon;timestamp;P1;P2;P0
73749;PMS7003;62058;48.406;-4.514;2023-03-01T00:00:10;0.00;0.00;0.00
73749;PMS7003;62058;48.406;-4.514;2023-03-01T00:02:35;0.00;0.00;0.00
73749;PMS7003;62058;48.406;-4.514;2023-03-01T00:05:01;0.00;0.00;0.00
73749;PMS7003;62058;48.406;-4.514;2023-03-01T00:07:26;0.00;0.00;0.00
73749;PMS7003;62058;48.406;-4.514;2023-03-01T00:09:51;0.00;0.00;0.00
73749;PMS7003;62058;48.406;-4.514;2023-03-01T00:12:17;1.00;0.00;0.00
73749;PMS7003;62058;48.406;-4.514;2023-03-01T00:14:45;1.00;0.00;0.00
73749;PMS7003;62058;48.406;-4.514;2023-03-01T00:17:10;1.00;0.00;0.00
73749;PMS7003;62058;48.406;-4.514;2023-03-01T00:19:35;1.00;0.00;0.00
73749;PMS7003;62058;48.406;-4.514;2023-03-01T00:22:01;0.00;0.00;0.00
73749;PMS7003;62058;48.406;-4.514;2023-03-01T00:24:26;0.00;0.00;0.00
73749;PMS7003;62058;48.406;-4.514;2023-03-01T00:26:54;0.25;0.00;0.00
73749;PMS7003;62058;48.406;-4.514;2023-03-01T00:29:23;0.50;0.00;0.00
73749;PMS7003;62058;48.406;-4.514;2023-03-01T00:31:49;1.25;0.00;0.00
73749;PMS7003;62058;48.406;-4.514;2023-03-01T00:34:14;0.00;0.00;0.00
73749;PMS7003;62058;48.406;-4.514;2023-03-01T00:36:39;0.00;0.00;0.00
73749;PMS7003;62058;48.406;-4.514;2023-03-01T00:39:05;0.00;0.00;0.00
73749;PMS7003;62058;48.406;-4.514;2023-03-01T00:41:31;0.00;0.00;0.00
73749;PMS7003;62058;48.406;-4.514;2023-03-01T00:43:56;0.00;0.00;0.00
73749;PMS7003;62058;48.406;-4.514;2023-03-01T00:46:22;0.75;0.00;0.00
73749;PMS7003;62058;48.406;-4.514;2023-03-01T00:48:48;3.00;0.00;0.00
73749;PMS7003;62058;48.406;-4.514;2023-03-01T00:51:23;1.50;0.25;0.25
73749;PMS7003;62058;48.406;-4.514;2023-03-01T00:53:52;0.00;0.00;0.00
73749;PMS7003;62058;48.406;-4.514;2023-03-01T00:56:18;1.00;0.00;0.00
73749;PMS7003;62058;48.406;-4.514;2023-03-01T00:58:43;0.00;0.00;0.00
73749;PMS7003;62058;48.406;-4.514;2023-03-01T01:01:14;0.00;0.00;0.00
73749;PMS7003;62058;48.406;-4.514;2023-03-01T01:03:55;0.00;0.00;0.00
73749;PMS7003;62058;48.406;-4.514;2023-03-01T01:08:46;3.00;0.00;0.00
73749;PMS7003;62058;48.406;-4.514;2023-03-01T01:11:12;7.00;5.75;5.00
73749;PMS7003;62058;48.406;-4.514;2023-03-01T01:13:41;6.50;2.25;2.00
73749;PMS7003;62058;48.406;-4.514;2023-03-01T01:16:06;2.00;0.00;0.00
73749;PMS7003;62058;48.406;-4.514;2023-03-01T01:18:32;4.00;0.00;0.00
73749;PMS7003;62058;48.406;-4.514;2023-03-01T01:20:57;4.50;3.75;3.75
73749;PMS7003;62058;48.406;-4.514;2023-03-01T01:23:22;0.50;0.50;0.50
73749;PMS7003;62058;48.406;-4.514;2023-03-01T01:25:48;0.00;0.00;0.00
73749;PMS7003;62058;48.406;-4.514;2023-03-01T01:28:13;0.00;0.00;0.00
73749;PMS7003;62058;48.406;-4.514;2023-03-01T01:30:38;0.00;0.00;0.00
73749;PMS7003;62058;48.406;-4.514;2023-03-01T01:33:03;1.67;1.67;1.00
73749;PMS7003;62058;48.406;-4.514;2023-03-01T01:35:29;1.00;1.00;1.00
73749;PMS7003;62058;48.406;-4.514;2023-03-01T01:37:54;3.33;1.00;1.00
73749;PMS7003;62058;48.406;-4.514;2023-03-01T01:40:19;2.67;2.33;2.33
73749;PMS7003;62058;48.406;-4.514;2023-03-01T01:42:44;1.00;1.00;1.00
73749;PMS7003;62058;48.406;-4.514;2023-03-01T01:45:24;3.00;2.50;2.50
73749;PMS7003;62058;48.406;-4.514;2023-03-01T01:47:51;3.25;3.00;3.00
73749;PMS7003;62058;48.406;-4.514;2023-03-01T01:50:17;3.25;3.25;3.25
73749;PMS7003;62058;48.406;-4.514;2023-03-01T01:52:43;8.00;1.00;1.00
73749;PMS7003;62058;48.406;-4.514;2023-03-01T01:55:11;8.50;4.50;4.50
73749;PMS7003;62058;48.406;-4.514;2023-03-01T01:57:44;4.50;4.50;4.50
73749;PMS7003;62058;48.406;-4.514;2023-03-01T02:00:11;8.00;6.00;6.00
73749;PMS7003;62058;48.406;-4.514;2023-03-01T02:02:37;6.25;6.25;6.25
73749;PMS7003;62058;48.406;-4.514;2023-03-01T02:05:06;15.00;7.00;7.00
73749;PMS7003;62058;48.406;-4.514;2023-03-01T02:07:35;8.75;5.00;4.00
73749;PMS7003;62058;48.406;-4.514;2023-03-01T02:10:02;9.00;9.00;7.00
73749;PMS7003;62058;48.406;-4.514;2023-03-01T02:12:27;12.50;6.00;6.00
73749;PMS7003;62058;48.406;-4.514;2023-03-01T02:14:53;15.25;4.00;4.00
73749;PMS7003;62058;48.406;-4.514;2023-03-01T02:17:19;6.75;6.75;6.00
73749;PMS7003;62058;48.406;-4.514;2023-03-01T02:22:14;10.67;6.33;6.33
73749;PMS7003;62058;48.406;-4.514;2023-03-01T02:27:05;11.67;6.67;6.67
73749;PMS7003;62058;48.406;-4.514;2023-03-01T02:29:31;18.75;10.50;9.00
73749;PMS7003;62058;48.406;-4.514;2023-03-01T02:31:57;15.75;8.75;7.50
73749;PMS7003;62058;48.406;-4.514;2023-03-01T02:34:24;7.00;7.00;7.00
73749;PMS7003;62058;48.406;-4.514;2023-03-01T02:36:58;10.25;9.00;8.50
73749;PMS7003;62058;48.406;-4.514;2023-03-01T02:39:36;16.00;10.00;9.50
73749;PMS7003;62058;48.406;-4.514;2023-03-01T02:42:07;17.00;10.00;9.00
73749;PMS7003;62058;48.406;-4.514;2023-03-01T02:44:34;18.00;9.25;9.00
73749;PMS7003;62058;48.406;-4.514;2023-03-01T02:47:00;14.67;12.00;10.67
73749;PMS7003;62058;48.406;-4.514;2023-03-01T02:49:28;14.50;10.00;9.00
73749;PMS7003;62058;48.406;-4.514;2023-03-01T02:52:01;12.00;9.00;8.50
73749;PMS7003;62058;48.406;-4.514;2023-03-01T02:54:40;9.75;8.50;7.00
73749;PMS7003;62058;48.406;-4.514;2023-03-01T02:57:07;10.50;7.50;6.75
73749;PMS7003;62058;48.406;-4.514;2023-03-01T02:59:34;14.75;11.00;10.50
73749;PMS7003;62058;48.406;-4.514;2023-03-01T03:02:04;15.75;13.50;12.00
73749;PMS7003;62058;48.406;-4.514;2023-03-01T03:04:29;14.50;7.75;6.75
73749;PMS7003;62058;48.406;-4.514;2023-03-01T03:06:54;10.00;7.00;7.00
73749;PMS7003;62058;48.406;-4.514;2023-03-01T03:09:20;9.33;6.00;6.00
73749;PMS7003;62058;48.406;-4.514;2023-03-01T03:11:45;15.75;11.00;10.00
73749;PMS7003;62058;48.406;-4.514;2023-03-01T03:14:12;17.50;13.00;12.00
73749;PMS7003;62058;48.406;-4.514;2023-03-01T03:16:41;10.00;8.75;8.25
73749;PMS7003;62058;48.406;-4.514;2023-03-01T03:19:08;18.25;11.00;9.75
73749;PMS7003;62058;48.406;-4.514;2023-03-01T03:21:33;21.75;12.50;11.50
73749;PMS7003;62058;48.406;-4.514;2023-03-01T03:23:58;9.00;6.25;6.25
73749;PMS7003;62058;48.406;-4.514;2023-03-01T03:26:23;13.00;9.67;9.67
73749;PMS7003;62058;48.406;-4.514;2023-03-01T03:28:49;9.00;6.00;6.00
73749;PMS7003;62058;48.406;-4.514;2023-03-01T03:31:14;12.67;8.67;7.67
73749;PMS7003;62058;48.406;-4.514;2023-03-01T03:33:39;15.33;9.67;9.00
73749;PMS7003;62058;48.406;-4.514;2023-03-01T03:36:05;14.67;10.00;10.00
73749;PMS7003;62058;48.406;-4.514;2023-03-01T03:38:30;16.25;11.75;11.00
73749;PMS7003;62058;48.406;-4.514;2023-03-01T03:41:00;13.67;11.33;10.67
73749;PMS7003;62058;48.406;-4.514;2023-03-01T03:43:29;12.00;12.00;10.00
73749;PMS7003;62058;48.406;-4.514;2023-03-01T03:45:54;21.00;15.00;12.00
73749;PMS7003;62058;48.406;-4.514;2023-03-01T03:48:21;23.00;15.00;13.00
73749;PMS7003;62058;48.406;-4.514;2023-03-01T03:50:48;19.00;11.67;10.33
73749;PMS7003;62058;48.406;-4.514;2023-03-01T03:53:14;21.75;12.00;10.50
73749;PMS7003;62058;48.406;-4.514;2023-03-01T03:55:39;13.33;10.67;8.33
73749;PMS7003;62058;48.406;-4.514;2023-03-01T03:58:05;12.33;10.00;9.00
73749;PMS7003;62058;48.406;-4.514;2023-03-01T04:00:35;19.00;17.50;15.00
73749;PMS7003;62058;48.406;-4.514;2023-03-01T04:03:01;24.25;10.50;9.25
73749;PMS7003;62058;48.406;-4.514;2023-03-01T04:05:27;18.00;10.00;9.50
73749;PMS7003;62058;48.406;-4.514;2023-03-01T04:07:52;15.75;10.75;9.00
73749;PMS7003;62058;48.406;-4.514;2023-03-01T04:10:26;21.00;12.00;11.00
73749;PMS7003;62058;48.406;-4.514;2023-03-01T04:12:51;18.75;14.50;13.00
73749;PMS7003;62058;48.406;-4.514;2023-03-01T04:15:17;20.75;15.50;15.25
73749;PMS7003;62058;48.406;-4.514;2023-03-01T04:17:43;14.00;12.50;11.00
73749;PMS7003;62058;48.406;-4.514;2023-03-01T04:20:09;20.25;11.00;9.00
73749;PMS7003;62058;48.406;-4.514;2023-03-01T04:22:36;17.75;14.00;12.00
73749;PMS7003;62058;48.406;-4.514;2023-03-01T04:25:01;20.25;11.50;11.00
73749;PMS7003;62058;48.406;-4.514;2023-03-01T04:27:27;20.50;15.00;12.00
73749;PMS7003;62058;48.406;-4.514;2023-03-01T04:29:52;11.33;9.33;9.00
73749;PMS7003;62058;48.406;-4.514;2023-03-01T04:32:17;14.67;10.00;10.00
73749;PMS7003;62058;48.406;-4.514;2023-03-01T04:34:43;23.50;14.00;12.75
73749;PMS7003;62058;48.406;-4.514;2023-03-01T04:37:08;15.00;12.00;12.00
73749;PMS7003;62058;48.406;-4.514;2023-03-01T04:39:34;20.00;12.67;12.00
73749;PMS7003;62058;48.406;-4.514;2023-03-01T04:42:10;18.00;13.00;12.00
73749;PMS7003;62058;48.406;-4.514;2023-03-01T04:44:36;30.75;17.50;14.00
73749;PMS7003;62058;48.406;-4.514;2023-03-01T04:47:01;16.67;13.00;12.67
73749;PMS7003;62058;48.406;-4.514;2023-03-01T04:49:26;17.33;13.67;12.67
73749;PMS7003;62058;48.406;-4.514;2023-03-01T04:51:51;18.67;13.00;12.00
73749;PMS7003;62058;48.406;-4.514;2023-03-01T04:54:17;21.67;16.00;14.33
73749;PMS7003;62058;48.406;-4.514;2023-03-01T04:56:45;14.75;11.50;10.00
73749;PMS7003;62058;48.406;-4.514;2023-03-01T04:59:10;18.75;11.00;9.50
73749;PMS7003;62058;48.406;-4.514;2023-03-01T05:01:37;11.00;10.25;9.50
73749;PMS7003;62058;48.406;-4.514;2023-03-01T05:04:02;13.50;11.00;10.00
73749;PMS7003;62058;48.406;-4.514;2023-03-01T05:06:30;14.00;12.50;11.00
73749;PMS7003;62058;48.406;-4.514;2023-03-01T05:08:55;16.67;10.00;9.67
73749;PMS7003;62058;48.406;-4.514;2023-03-01T05:11:20;21.75;11.50;10.00
73749;PMS7003;62058;48.406;-4.514;2023-03-01T05:13:46;18.33;14.33;13.33
73749;PMS7003;62058;48.406;-4.514;2023-03-01T05:16:11;17.00;14.00;11.00
73749;PMS7003;62058;48.406;-4.514;2023-03-01T05:18:36;15.67;13.00;12.00
73749;PMS7003;62058;48.406;-4.514;2023-03-01T05:21:09;16.00;10.00;9.67
73749;PMS7003;62058;48.406;-4.514;2023-03-01T05:23:34;15.00;9.00;8.00
73749;PMS7003;62058;48.406;-4.514;2023-03-01T05:26:01;20.00;13.25;10.75
73749;PMS7003;62058;48.406;-4.514;2023-03-01T05:28:27;10.50;8.75;8.00
73749;PMS7003;62058;48.406;-4.514;2023-03-01T05:30:53;13.75;10.25;9.00
73749;PMS7003;62058;48.406;-4.514;2023-03-01T05:33:19;13.50;10.75;9.25
73749;PMS7003;62058;48.406;-4.514;2023-03-01T05:35:46;19.25;10.50;10.00
73749;PMS7003;62058;48.406;-4.514;2023-03-01T05:38:13;9.75;5.50;5.00
73749;PMS7003;62058;48.406;-4.514;2023-03-01T05:40:39;15.00;7.00;6.00
73749;PMS7003;62058;48.406;-4.514;2023-03-01T05:43:04;14.00;9.00;8.00
73749;PMS7003;62058;48.406;-4.514;2023-03-01T05:45:30;17.75;12.00;11.50
73749;PMS7003;62058;48.406;-4.514;2023-03-01T05:47:57;17.00;12.75;12.25
73749;PMS7003;62058;48.406;-4.514;2023-03-01T05:50:23;19.00;13.00;12.00
73749;PMS7003;62058;48.406;-4.514;2023-03-01T05:53:12;13.00;9.00;8.50
73749;PMS7003;62058;48.406;-4.514;2023-03-01T05:55:35;24.50;12.00;12.00
73749;PMS7003;62058;48.406;-4.514;2023-03-01T05:58:02;12.75;9.00;8.50
73749;PMS7003;62058;48.406;-4.514;2023-03-01T06:00:28;18.50;10.50;9.50
73749;PMS7003;62058;48.406;-4.514;2023-03-01T06:02:54;21.25;15.00;13.00
73749;PMS7003;62058;48.406;-4.514;2023-03-01T06:05:20;21.00;12.50;11.00
73749;PMS7003;62058;48.406;-4.514;2023-03-01T06:07:45;20.75;10.00;10.00
73749;PMS7003;62058;48.406;-4.514;2023-03-01T06:10:11;24.67;10.00;9.00
73749;PMS7003;62058;48.406;-4.514;2023-03-01T06:12:37;20.75;12.00;9.75
73749;PMS7003;62058;48.406;-4.514;2023-03-01T06:15:03;20.75;12.25;10.50
73749;PMS7003;62058;48.406;-4.514;2023-03-01T06:17:29;14.00;9.50;9.00
73749;PMS7003;62058;48.406;-4.514;2023-03-01T06:19:55;13.50;13.50;12.25
73749;PMS7003;62058;48.406;-4.514;2023-03-01T06:22:20;16.67;10.00;9.00
73749;PMS7003;62058;48.406;-4.514;2023-03-01T06:24:45;17.33;11.33;11.33
73749;PMS7003;62058;48.406;-4.514;2023-03-01T06:27:11;28.00;15.67;12.00
73749;PMS7003;62058;48.406;-4.514;2023-03-01T06:29:36;12.33;7.67;7.33
73749;PMS7003;62058;48.406;-4.514;2023-03-01T06:32:02;19.33;14.33;12.00
73749;PMS7003;62058;48.406;-4.514;2023-03-01T06:34:27;17.75;9.75;8.00
73749;PMS7003;62058;48.406;-4.514;2023-03-01T06:36:52;17.00;14.00;14.00
73749;PMS7003;62058;48.406;-4.514;2023-03-01T06:39:18;18.25;13.50;13.00
73749;PMS7003;62058;48.406;-4.514;2023-03-01T06:41:43;24.67;16.00;15.00
73749;PMS7003;62058;48.406;-4.514;2023-03-01T06:44:09;15.25;10.00;9.50
73749;PMS7003;62058;48.406;-4.514;2023-03-01T06:46:34;15.67;14.33;12.00
73749;PMS7003;62058;48.406;-4.514;2023-03-01T06:48:59;15.67;12.00;10.00
73749;PMS7003;62058;48.406;-4.514;2023-03-01T06:51:25;22.67;12.00;10.00
73749;PMS7003;62058;48.406;-4.514;2023-03-01T06:53:50;23.25;15.00;13.00
73749;PMS7003;62058;48.406;-4.514;2023-03-01T06:56:15;16.00;10.67;10.67
73749;PMS7003;62058;48.406;-4.514;2023-03-01T06:58:41;19.33;14.33;12.67
73749;PMS7003;62058;48.406;-4.514;2023-03-01T07:01:06;21.33;15.33;14.33
73749;PMS7003;62058;48.406;-4.514;2023-03-01T07:03:32;22.50;14.50;12.25
73749;PMS7003;62058;48.406;-4.514;2023-03-01T07:05:57;29.00;15.67;14.33
73749;PMS7003;62058;48.406;-4.514;2023-03-01T07:08:22;20.67;13.67;12.33
73749;PMS7003;62058;48.406;-4.514;2023-03-01T07:10:48;16.67;15.33;13.67
73749;PMS7003;62058;48.406;-4.514;2023-03-01T07:13:13;24.00;16.00;15.00
73749;PMS7003;62058;48.406;-4.514;2023-03-01T07:15:39;15.33;9.67;9.00
73749;PMS7003;62058;48.406;-4.514;2023-03-01T07:18:05;19.00;13.00;11.50
73749;PMS7003;62058;48.406;-4.514;2023-03-01T07:20:30;11.67;4.00;4.00
73749;PMS7003;62058;48.406;-4.514;2023-03-01T07:22:55;19.00;15.00;13.67
73749;PMS7003;62058;48.406;-4.514;2023-03-01T07:25:23;28.00;13.00;12.25
73749;PMS7003;62058;48.406;-4.514;2023-03-01T07:27:52;16.75;12.75;11.00
73749;PMS7003;62058;48.406;-4.514;2023-03-01T07:30:17;16.00;13.00;12.00
73749;PMS7003;62058;48.406;-4.514;2023-03-01T07:32:42;27.00;16.00;15.00
73749;PMS7003;62058;48.406;-4.514;2023-03-01T07:35:08;18.33;15.67;13.67
73749;PMS7003;62058;48.406;-4.514;2023-03-01T07:37:33;24.25;13.00;11.00
73749;PMS7003;62058;48.406;-4.514;2023-03-01T07:39:58;18.33;12.67;12.00
73749;PMS7003;62058;48.406;-4.514;2023-03-01T07:42:23;16.67;12.00;12.00
73749;PMS7003;62058;48.406;-4.514;2023-03-01T07:44:49;11.33;7.00;6.33
73749;PMS7003;62058;48.406;-4.514;2023-03-01T07:47:14;21.67;16.00;15.00
73749;PMS7003;62058;48.406;-4.514;2023-03-01T07:49:39;15.33;10.67;9.33
73749;PMS7003;62058;48.406;-4.514;2023-03-01T07:52:05;28.75;18.00;15.50
73749;PMS7003;62058;48.406;-4.514;2023-03-01T07:54:30;23.67;15.00;12.33
73749;PMS7003;62058;48.406;-4.514;2023-03-01T07:56:56;13.00;10.00;9.33
73749;PMS7003;62058;48.406;-4.514;2023-03-01T07:59:21;22.25;13.00;12.00
73749;PMS7003;62058;48.406;-4.514;2023-03-01T08:01:48;18.50;13.50;12.50
73749;PMS7003;62058;48.406;-4.514;2023-03-01T08:04:13;16.50;15.00;13.00
73749;PMS7003;62058;48.406;-4.514;2023-03-01T08:06:39;17.25;14.50;13.00
73749;PMS7003;62058;48.406;-4.514;2023-03-01T08:09:04;17.33;7.00;6.00
73749;PMS7003;62058;48.406;-4.514;2023-03-01T08:11:29;18.33;15.00;15.00
73749;PMS7003;62058;48.406;-4.514;2023-03-01T08:13:55;26.50;13.00;12.00
73749;PMS7003;62058;48.406;-4.514;2023-03-01T08:16:21;12.00;12.00;11.00
73749;PMS7003;62058;48.406;-4.514;2023-03-01T08:18:46;24.50;18.00;15.00
73749;PMS7003;62058;48.406;-4.514;2023-03-01T08:21:13;13.00;13.00;12.00
73749;PMS7003;62058;48.406;-4.514;2023-03-01T08:23:38;23.50;15.75;12.75
73749;PMS7003;62058;48.406;-4.514;2023-03-01T08:26:08;24.25;23.00;17.50
73749;PMS7003;62058;48.406;-4.514;2023-03-01T08:28:34;21.00;14.50;12.25
73749;PMS7003;62058;48.406;-4.514;2023-03-01T08:30:59;17.50;14.00;12.50
73749;PMS7003;62058;48.406;-4.514;2023-03-01T08:33:25;21.50;16.00;15.00
73749;PMS7003;62058;48.406;-4.514;2023-03-01T08:35:50;34.00;18.50;17.00
73749;PMS7003;62058;48.406;-4.514;2023-03-01T08:38:15;20.33;13.00;13.00
73749;PMS7003;62058;48.406;-4.514;2023-03-01T08:40:41;15.67;13.00;12.67
73749;PMS7003;62058;48.406;-4.514;2023-03-01T08:43:06;21.00;13.00;12.00
73749;PMS7003;62058;48.406;-4.514;2023-03-01T08:45:31;19.00;11.33;10.00
73749;PMS7003;62058;48.406;-4.514;2023-03-01T08:47:56;21.50;16.25;14.00
73749;PMS7003;62058;48.406;-4.514;2023-03-01T08:50:22;17.33;15.00;13.00
73749;PMS7003;62058;48.406;-4.514;2023-03-01T08:52:49;10.50;8.50;8.00
73749;PMS7003;62058;48.406;-4.514;2023-03-01T08:55:14;19.33;10.67;9.33
73749;PMS7003;62058;48.406;-4.514;2023-03-01T08:57:41;10.00;8.00;7.00
73749;PMS7003;62058;48.406;-4.514;2023-03-01T09:00:06;18.00;10.67;10.67
73749;PMS7003;62058;48.406;-4.514;2023-03-01T09:02:33;13.75;9.75;9.50
73749;PMS7003;62058;48.406;-4.514;2023-03-01T09:04:58;6.33;6.00;4.67
73749;PMS7003;62058;48.406;-4.514;2023-03-01T09:07:24;13.00;6.33;6.33
73749;PMS7003;62058;48.406;-4.514;2023-03-01T09:09:53;7.50;6.00;6.00
73749;PMS7003;62058;48.406;-4.514;2023-03-01T09:12:19;18.50;9.50;7.50
73749;PMS7003;62058;48.406;-4.514;2023-03-01T09:14:44;23.50;12.50;10.50
73749;PMS7003;62058;48.406;-4.514;2023-03-01T09:17:09;31.67;24.33;21.33
73749;PMS7003;62058;48.406;-4.514;2023-03-01T09:19:34;18.33;12.33;10.33
73749;PMS7003;62058;48.406;-4.514;2023-03-01T09:22:00;18.67;12.33;11.33
73749;PMS7003;62058;48.406;-4.514;2023-03-01T09:24:25;15.50;13.00;12.50
73749;PMS7003;62058;48.406;-4.514;2023-03-01T09:26:52;13.50;10.75;9.50
73749;PMS7003;62058;48.406;-4.514;2023-03-01T09:29:18;10.50;10.50;10.25
73749;PMS7003;62058;48.406;-4.514;2023-03-01T09:31:43;28.25;16.25;14.25
73749;PMS7003;62058;48.406;-4.514;2023-03-01T09:34:08;20.75;15.25;14.00
73749;PMS7003;62058;48.406;-4.514;2023-03-01T09:36:34;14.25;9.25;8.25
73749;PMS7003;62058;48.406;-4.514;2023-03-01T09:38:59;27.50;20.50;18.00
73749;PMS7003;62058;48.406;-4.514;2023-03-01T09:41:47;24.50;18.25;15.50
73749;PMS7003;62058;48.406;-4.514;2023-03-01T09:46:56;21.25;11.50;9.75
73749;PMS7003;62058;48.406;-4.514;2023-03-01T09:49:26;9.50;6.00;6.00
73749;PMS7003;62058;48.406;-4.514;2023-03-01T09:54:36;15.50;9.25;9.25
73749;PMS7003;62058;48.406;-4.514;2023-03-01T09:59:36;15.00;12.00;10.00
73749;PMS7003;62058;48.406;-4.514;2023-03-01T10:02:16;14.00;9.00;8.00
73749;PMS7003;62058;48.406;-4.514;2023-03-01T10:04:50;18.75;15.75;14.50
73749;PMS7003;62058;48.406;-4.514;2023-03-01T10:07:19;33.00;16.00;15.00
73749;PMS7003;62058;48.406;-4.514;2023-03-01T10:09:45;28.50;24.00;19.25
73749;PMS7003;62058;48.406;-4.514;2023-03-01T10:12:12;25.75;21.50;19.25
73749;PMS7003;62058;48.406;-4.514;2023-03-01T10:18:03;18.75;11.75;11.00
73749;PMS7003;62058;48.406;-4.514;2023-03-01T10:22:43;27.75;26.75;21.75
73749;PMS7003;62058;48.406;-4.514;2023-03-01T10:25:15;33.00;28.25;21.75
73749;PMS7003;62058;48.406;-4.514;2023-03-01T10:27:46;32.00;29.25;19.00
73749;PMS7003;62058;48.406;-4.514;2023-03-01T10:30:15;32.25;25.50;20.75
73749;PMS7003;62058;48.406;-4.514;2023-03-01T10:32:42;27.00;24.25;20.00
73749;PMS7003;62058;48.406;-4.514;2023-03-01T10:35:24;29.25;21.00;17.50
73749;PMS7003;62058;48.406;-4.514;2023-03-01T10:38:23;26.00;22.25;17.75
73749;PMS7003;62058;48.406;-4.514;2023-03-01T10:43:16;28.50;23.00;16.75
73749;PMS7003;62058;48.406;-4.514;2023-03-01T10:45:41;32.75;26.50;20.50
73749;PMS7003;62058;48.406;-4.514;2023-03-01T10:50:35;24.75;24.75;20.25
73749;PMS7003;62058;48.406;-4.514;2023-03-01T10:53:03;31.00;26.75;20.50
73749;PMS7003;62058;48.406;-4.514;2023-03-01T10:55:36;32.75;28.25;21.00
73749;PMS7003;62058;48.406;-4.514;2023-03-01T10:58:17;36.75;27.00;20.75
73749;PMS7003;62058;48.406;-4.514;2023-03-01T11:00:51;32.50;29.75;22.75
73749;PMS7003;62058;48.406;-4.514;2023-03-01T11:03:19;27.25;24.50;18.25
73749;PMS7003;62058;48.406;-4.514;2023-03-01T11:11:06;29.75;26.00;20.00
73749;PMS7003;62058;48.406;-4.514;2023-03-01T11:13:31;36.75;31.00;23.00
73749;PMS7003;62058;48.406;-4.514;2023-03-01T11:16:00;28.75;28.25;21.00
73749;PMS7003;62058;48.406;-4.514;2023-03-01T11:18:26;35.25;27.00;20.75
73749;PMS7003;62058;48.406;-4.514;2023-03-01T11:20:54;38.00;27.00;20.00
73749;PMS7003;62058;48.406;-4.514;2023-03-01T11:23:20;31.50;31.00;21.75
73749;PMS7003;62058;48.406;-4.514;2023-03-01T11:25:51;33.75;28.50;21.75
73749;PMS7003;62058;48.406;-4.514;2023-03-01T11:28:19;31.75;26.75;21.25
73749;PMS7003;62058;48.406;-4.514;2023-03-01T11:33:19;40.50;34.25;25.00
73749;PMS7003;62058;48.406;-4.514;2023-03-01T11:36:07;42.00;30.50;22.25
73749;PMS7003;62058;48.406;-4.514;2023-03-01T11:38:36;45.00;39.00;29.00
73749;PMS7003;62058;48.406;-4.514;2023-03-01T11:48:56;52.75;41.25;29.50
73749;PMS7003;62058;48.406;-4.514;2023-03-01T11:51:46;57.00;43.25;30.25
73749;PMS7003;62058;48.406;-4.514;2023-03-01T11:54:29;48.00;36.00;24.00
73749;PMS7003;62058;48.406;-4.514;2023-03-01T11:56:57;52.25;39.75;28.00
73749;PMS7003;62058;48.406;-4.514;2023-03-01T12:12:30;41.50;32.50;24.50
73749;PMS7003;62058;48.406;-4.514;2023-03-01T12:15:11;44.25;32.50;23.50
73749;PMS7003;62058;48.406;-4.514;2023-03-01T12:30:31;42.25;31.75;24.25
73749;PMS7003;62058;48.406;-4.514;2023-03-01T12:33:17;34.25;31.25;23.75
73749;PMS7003;62058;48.406;-4.514;2023-03-01T12:49:02;32.50;29.75;24.00
73749;PMS7003;62058;48.406;-4.514;2023-03-01T12:51:30;40.75;32.00;24.00
73749;PMS7003;62058;48.406;-4.514;2023-03-01T12:53:57;36.25;31.50;23.25
73749;PMS7003;62058;48.406;-4.514;2023-03-01T12:56:24;39.00;32.00;22.75
73749;PMS7003;62058;48.406;-4.514;2023-03-01T13:11:52;36.25;30.25;23.25
73749;PMS7003;62058;48.406;-4.514;2023-03-01T13:16:46;39.25;31.75;23.75
73749;PMS7003;62058;48.406;-4.514;2023-03-01T13:19:17;43.75;30.25;21.25
73749;PMS7003;62058;48.406;-4.514;2023-03-01T13:21:44;37.25;33.25;24.00
73749;PMS7003;62058;48.406;-4.514;2023-03-01T13:29:43;44.00;32.75;24.00
73749;PMS7003;62058;48.406;-4.514;2023-03-01T13:32:18;39.25;32.00;23.75
73749;PMS7003;62058;48.406;-4.514;2023-03-01T13:34:45;36.25;29.25;22.00
73749;PMS7003;62058;48.406;-4.514;2023-03-01T13:37:18;28.00;24.75;21.50
73749;PMS7003;62058;48.406;-4.514;2023-03-01T13:39:43;35.75;31.75;23.00
73749;PMS7003;62058;48.406;-4.514;2023-03-01T13:42:29;38.67;32.33;23.67
73749;PMS7003;62058;48.406;-4.514;2023-03-01T13:44:55;43.00;35.00;24.00
73749;PMS7003;62058;48.406;-4.514;2023-03-01T13:47:22;40.75;31.00;22.75
73749;PMS7003;62058;48.406;-4.514;2023-03-01T13:52:38;48.00;34.75;26.00
73749;PMS7003;62058;48.406;-4.514;2023-03-01T13:55:05;30.75;28.00;22.25
73749;PMS7003;62058;48.406;-4.514;2023-03-01T13:57:35;35.50;29.50;23.00
73749;PMS7003;62058;48.406;-4.514;2023-03-01T14:00:03;34.00;30.25;21.75
73749;PMS7003;62058;48.406;-4.514;2023-03-01T14:02:31;37.75;30.25;22.00
73749;PMS7003;62058;48.406;-4.514;2023-03-01T14:04:59;39.00;33.00;24.00
73749;PMS7003;62058;48.406;-4.514;2023-03-01T14:07:25;40.75;31.25;24.00
73749;PMS7003;62058;48.406;-4.514;2023-03-01T14:09:54;41.25;34.00;23.50
73749;PMS7003;62058;48.406;-4.514;2023-03-01T14:17:24;46.75;36.75;28.00
73749;PMS7003;62058;48.406;-4.514;2023-03-01T14:19:56;42.00;33.00;25.50
73749;PMS7003;62058;48.406;-4.514;2023-03-01T14:24:54;39.25;30.75;22.75
73749;PMS7003;62058;48.406;-4.514;2023-03-01T14:27:20;39.00;31.00;23.25
73749;PMS7003;62058;48.406;-4.514;2023-03-01T14:29:55;34.75;31.75;24.00
73749;PMS7003;62058;48.406;-4.514;2023-03-01T14:32:22;35.00;30.00;23.00
73749;PMS7003;62058;48.406;-4.514;2023-03-01T14:34:49;40.00;31.75;23.75
73749;PMS7003;62058;48.406;-4.514;2023-03-01T14:37:31;35.50;31.50;23.00
73749;PMS7003;62058;48.406;-4.514;2023-03-01T14:39:57;39.00;33.25;22.50
73749;PMS7003;62058;48.406;-4.514;2023-03-01T14:42:24;42.25;30.75;22.00
73749;PMS7003;62058;48.406;-4.514;2023-03-01T14:44:51;35.00;27.75;20.25
73749;PMS7003;62058;48.406;-4.514;2023-03-01T14:47:26;34.00;29.50;23.75
73749;PMS7003;62058;48.406;-4.514;2023-03-01T14:49:56;35.00;32.50;22.75
73749;PMS7003;62058;48.406;-4.514;2023-03-01T14:52:22;35.00;31.25;23.25
73749;PMS7003;62058;48.406;-4.514;2023-03-01T14:54:53;23.50;19.50;19.00
73749;PMS7003;62058;48.406;-4.514;2023-03-01T14:57:20;34.25;31.75;23.00
73749;PMS7003;62058;48.406;-4.514;2023-03-01T14:59:52;29.00;21.25;18.00
73749;PMS7003;62058;48.406;-4.514;2023-03-01T15:02:20;40.00;33.50;24.75
73749;PMS7003;62058;48.406;-4.514;2023-03-01T15:04:46;44.00;32.50;22.00
73749;PMS7003;62058;48.406;-4.514;2023-03-01T15:07:13;38.25;29.75;20.25
73749;PMS7003;62058;48.406;-4.514;2023-03-01T15:09:39;28.75;28.75;21.75
73749;PMS7003;62058;48.406;-4.514;2023-03-01T15:12:25;32.00;27.75;21.00
73749;PMS7003;62058;48.406;-4.514;2023-03-01T15:14:50;41.50;32.25;23.00
73749;PMS7003;62058;48.406;-4.514;2023-03-01T15:19:46;37.75;32.00;23.00
73749;PMS7003;62058;48.406;-4.514;2023-03-01T15:22:14;25.00;24.50;20.00
73749;PMS7003;62058;48.406;-4.514;2023-03-01T15:24:40;22.75;22.75;21.00
73749;PMS7003;62058;48.406;-4.514;2023-03-01T15:27:12;40.33;30.33;20.67
73749;PMS7003;62058;48.406;-4.514;2023-03-01T15:29:39;36.75;27.75;22.00
73749;PMS7003;62058;48.406;-4.514;2023-03-01T15:32:20;44.50;33.00;22.50
73749;PMS7003;62058;48.406;-4.514;2023-03-01T15:34:47;41.75;32.00;22.00
73749;PMS7003;62058;48.406;-4.514;2023-03-01T15:39:57;35.25;26.25;21.50
73749;PMS7003;62058;48.406;-4.514;2023-03-01T15:47:39;25.50;17.75;14.25